createdAt,value
2023-03-18T00:00:13.229Z,21.73
2023-03-18T00:02:42.053Z,21.78
2023-03-18T00:05:10.977Z,21.69
2023-03-18T00:07:37.603Z,21.73
2023-03-18T00:10:10.114Z,21.61
2023-03-18T00:12:38.700Z,21.64
2023-03-18T00:15:11.105Z,21.56
2023-03-18T00:17:40.021Z,21.72
2023-03-18T00:20:12.830Z,21.76
2023-03-18T00:22:41.008Z,21.72
2023-03-18T00:25:09.450Z,21.64
2023-03-18T00:27:36.402Z,21.58
2023-03-18T00:30:05.429Z,21.46
2023-03-18T00:32:32.835Z,21.44
2023-03-18T00:35:01.135Z,21.38
2023-03-18T00:37:30.654Z,21.27
2023-03-18T00:40:05.012Z,21.36
2023-03-18T00:42:39.040Z,21.24
2023-03-18T00:45:08.478Z,21.11
2023-03-18T00:47:35.813Z,21.13
2023-03-18T00:50:04.135Z,21.19
2023-03-18T00:52:32.263Z,21.25
2023-03-18T00:55:00.556Z,21.53
2023-03-18T00:57:29.415Z,21.20
2023-03-18T00:59:57.010Z,21.13
2023-03-18T01:02:24.832Z,21.27
2023-03-18T01:04:52.091Z,21.21
2023-03-18T01:07:19.405Z,20.93
2023-03-18T01:09:48.041Z,21.00
2023-03-18T01:12:15.082Z,21.12
2023-03-18T01:14:42.993Z,21.08
2023-03-18T01:17:09.609Z,20.97
2023-03-18T01:19:37.293Z,20.91
2023-03-18T01:22:04.646Z,20.87
2023-03-18T01:24:36.686Z,20.64
2023-03-18T01:27:04.117Z,20.63
2023-03-18T01:29:31.029Z,20.65
2023-03-18T01:31:57.922Z,20.85
2023-03-18T01:34:25.037Z,21.10
2023-03-18T01:36:52.312Z,21.30
2023-03-18T01:39:21.454Z,21.36
2023-03-18T01:41:48.766Z,21.31
2023-03-18T01:44:23.165Z,21.41
2023-03-18T01:46:53.201Z,21.34
2023-03-18T01:49:31.337Z,21.45
2023-03-18T01:52:03.601Z,21.36
2023-03-18T01:54:34.590Z,21.30
2023-03-18T01:57:03.503Z,21.38
2023-03-18T01:59:33.645Z,21.28
2023-03-18T02:02:10.219Z,21.45
2023-03-18T02:04:50.319Z,21.40
2023-03-18T02:07:23.105Z,21.47
2023-03-18T02:09:50.871Z,21.14
2023-03-18T02:12:24.157Z,21.36
2023-03-18T02:14:53.209Z,21.05
2023-03-18T02:17:24.669Z,21.12
2023-03-18T02:20:00.558Z,21.18
2023-03-18T02:22:39.649Z,21.39
2023-03-18T02:25:45.397Z,21.42
2023-03-18T02:28:20.147Z,21.58
2023-03-18T02:30:51.031Z,21.30
2023-03-18T02:33:21.131Z,21.46
2023-03-18T02:35:52.983Z,21.51
2023-03-18T02:38:20.047Z,21.65
2023-03-18T02:40:48.108Z,21.77
2023-03-18T02:43:24.385Z,21.49
2023-03-18T02:46:20.158Z,21.60
2023-03-18T02:48:49.737Z,21.59
2023-03-18T02:51:17.382Z,21.65
2023-03-18T02:53:45.116Z,21.67
2023-03-18T02:56:12.257Z,21.65
2023-03-18T02:58:41.100Z,21.49
2023-03-18T03:01:09.311Z,21.46
2023-03-18T03:03:37.104Z,21.47
2023-03-18T03:06:04.329Z,21.63
2023-03-18T03:08:31.768Z,21.61
2023-03-18T03:10:58.301Z,21.66
2023-03-18T03:13:26.561Z,21.46
2023-03-18T03:15:54.041Z,21.48
2023-03-18T03:18:21.495Z,21.42
2023-03-18T03:20:50.657Z,21.50
2023-03-18T03:23:21.021Z,21.25
2023-03-18T03:25:49.193Z,21.24
2023-03-18T03:28:16.972Z,21.17
2023-03-18T03:30:45.289Z,21.20
2023-03-18T03:33:12.042Z,21.38
2023-03-18T03:35:40.430Z,21.49
2023-03-18T03:38:07.153Z,21.44
2023-03-18T03:40:34.193Z,21.28
2023-03-18T03:43:01.059Z,21.05
2023-03-18T03:45:27.917Z,20.99
2023-03-18T03:47:54.546Z,20.80
2023-03-18T03:50:21.762Z,20.86
2023-03-18T03:52:48.411Z,20.88
2023-03-18T03:55:18.116Z,20.54
2023-03-18T03:57:45.810Z,20.62
2023-03-18T04:00:16.553Z,20.55
2023-03-18T04:02:49.126Z,20.80
2023-03-18T04:05:18.385Z,21.08
2023-03-18T04:07:46.412Z,21.03
2023-03-18T04:10:16.373Z,20.88
2023-03-18T04:12:45.754Z,21.18
2023-03-18T04:15:14.638Z,21.15
2023-03-18T04:17:42.768Z,21.47
2023-03-18T04:20:10.677Z,21.51
2023-03-18T04:22:37.710Z,21.63
2023-03-18T04:25:06.777Z,21.50
2023-03-18T04:27:34.189Z,21.47
2023-03-18T04:30:08.516Z,21.37
2023-03-18T04:32:43.780Z,21.44
2023-03-18T04:35:11.099Z,21.25
2023-03-18T04:37:38.342Z,21.37
2023-03-18T04:40:06.729Z,21.52
2023-03-18T04:42:33.781Z,21.22
2023-03-18T04:45:01.726Z,21.03
2023-03-18T04:47:28.473Z,21.05
2023-03-18T04:49:55.049Z,21.05
2023-03-18T04:52:21.910Z,21.10
2023-03-18T04:54:48.742Z,21.03
2023-03-18T04:57:16.598Z,21.15
2023-03-18T04:59:49.028Z,21.18
2023-03-18T05:02:15.609Z,21.15
2023-03-18T05:04:42.700Z,20.87
2023-03-18T05:07:14.469Z,20.67
2023-03-18T05:09:43.817Z,20.87
2023-03-18T05:12:16.102Z,21.05
2023-03-18T05:14:43.793Z,21.02
2023-03-18T05:17:15.564Z,21.03
2023-03-18T05:19:48.619Z,21.04
2023-03-18T05:22:20.971Z,21.08
2023-03-18T05:24:51.408Z,21.01
2023-03-18T05:27:20.073Z,21.04
2023-03-18T05:29:55.996Z,21.09
2023-03-18T05:32:29.421Z,21.09
2023-03-18T05:35:01.070Z,21.39
2023-03-18T05:37:28.800Z,21.29
2023-03-18T05:40:09.923Z,21.36
2023-03-18T05:42:49.408Z,21.28
2023-03-18T05:45:22.699Z,21.37
2023-03-18T05:47:54.312Z,21.38
2023-03-18T05:50:36.599Z,21.44
2023-03-18T05:53:06.677Z,21.41
2023-03-18T05:55:37.391Z,21.26
2023-03-18T05:58:04.214Z,21.24
2023-03-18T06:00:32.625Z,21.11
2023-03-18T06:03:01.786Z,21.03
2023-03-18T06:05:29.657Z,20.92
2023-03-18T06:07:56.692Z,20.94
2023-03-18T06:10:25.175Z,20.93
2023-03-18T06:12:52.537Z,20.74
2023-03-18T06:15:21.132Z,20.74
2023-03-18T06:17:48.827Z,20.89
2023-03-18T06:20:18.538Z,20.59
2023-03-18T06:22:49.448Z,20.43
2023-03-18T06:25:18.802Z,20.51
2023-03-18T06:27:46.606Z,20.41
2023-03-18T06:30:15.345Z,20.48
2023-03-18T06:32:42.768Z,20.44
2023-03-18T06:35:10.861Z,20.72
2023-03-18T06:37:39.058Z,20.83
2023-03-18T06:40:08.173Z,20.93
2023-03-18T06:42:34.882Z,20.88
2023-03-18T06:45:12.569Z,20.90
2023-03-18T06:47:46.678Z,20.81
2023-03-18T06:50:13.606Z,20.79
2023-03-18T06:52:40.433Z,20.73
2023-03-18T06:55:13.191Z,20.67
2023-03-18T06:57:42.644Z,20.87
2023-03-18T07:00:10.930Z,20.76
2023-03-18T07:02:39.749Z,20.70
2023-03-18T07:05:08.544Z,20.70
2023-03-18T07:07:37.665Z,20.69
2023-03-18T07:10:19.316Z,20.69
2023-03-18T07:12:47.820Z,20.73
2023-03-18T07:15:19.829Z,21.09
2023-03-18T07:17:46.488Z,21.26
2023-03-18T07:20:15.171Z,21.08
2023-03-18T07:22:47.398Z,21.21
2023-03-18T07:25:14.102Z,21.30
2023-03-18T07:27:42.278Z,21.07
2023-03-18T07:30:09.939Z,21.36
2023-03-18T07:32:38.324Z,20.90
2023-03-18T07:35:06.031Z,20.82
2023-03-18T07:37:33.426Z,21.03
2023-03-18T07:40:00.329Z,21.30
2023-03-18T07:42:27.018Z,21.17
2023-03-18T07:44:53.705Z,21.24
2023-03-18T07:47:20.861Z,21.06
2023-03-18T07:49:47.609Z,21.14
2023-03-18T07:52:14.548Z,21.35
2023-03-18T07:54:41.634Z,21.35
2023-03-18T07:57:08.384Z,21.41
2023-03-18T07:59:35.170Z,21.40
2023-03-18T08:02:02.440Z,21.44
2023-03-18T08:04:29.757Z,21.58
2023-03-18T08:06:57.862Z,21.39
2023-03-18T08:09:24.793Z,21.25
2023-03-18T08:11:51.388Z,21.49
2023-03-18T08:14:18.010Z,21.82
2023-03-18T08:16:44.826Z,22.07
2023-03-18T08:19:11.906Z,21.99
2023-03-18T08:21:39.666Z,21.83
2023-03-18T08:24:06.773Z,21.85
2023-03-18T08:26:33.249Z,22.08
2023-03-18T08:28:59.784Z,21.95
2023-03-18T08:31:26.606Z,21.77
2023-03-18T08:33:55.691Z,21.93
2023-03-18T08:36:23.377Z,21.80
2023-03-18T08:38:50.609Z,21.65
2023-03-18T08:41:17.108Z,21.77
2023-03-18T08:43:45.013Z,21.67
2023-03-18T08:46:11.795Z,21.74
2023-03-18T08:48:38.496Z,21.66
2023-03-18T08:51:08.205Z,21.88
2023-03-18T08:53:35.676Z,21.80
2023-03-18T08:56:03.121Z,21.90
2023-03-18T08:58:30.092Z,21.89
2023-03-18T09:00:56.847Z,21.76
2023-03-18T09:03:24.676Z,21.55
2023-03-18T09:05:55.591Z,21.53
2023-03-18T09:08:22.389Z,21.94
2023-03-18T09:10:52.485Z,22.13
2023-03-18T09:13:19.821Z,22.01
2023-03-18T09:15:46.321Z,22.16
2023-03-18T09:18:16.347Z,21.88
2023-03-18T09:20:43.218Z,21.77
2023-03-18T09:23:12.236Z,22.09
2023-03-18T09:25:40.092Z,22.60
2023-03-18T09:28:06.648Z,23.38
2023-03-18T09:30:33.670Z,23.57
2023-03-18T09:33:01.596Z,23.39
2023-03-18T09:35:31.720Z,23.00
2023-03-18T09:37:58.820Z,23.22
2023-03-18T09:40:38.420Z,23.76
2023-03-18T09:43:13.552Z,24.05
2023-03-18T09:45:44.574Z,23.82
2023-03-18T09:48:48.984Z,23.60
2023-03-18T09:51:38.536Z,22.99
2023-03-18T09:54:14.092Z,23.03
2023-03-18T09:56:40.966Z,23.18
2023-03-18T09:59:24.877Z,23.14
2023-03-18T10:01:54.595Z,22.83
2023-03-18T10:04:28.542Z,22.55
2023-03-18T10:07:01.915Z,22.99
2023-03-18T10:09:34.029Z,23.29
2023-03-18T10:12:16.800Z,23.54
2023-03-18T10:14:54.625Z,23.36
2023-03-18T10:17:30.116Z,24.09
2023-03-18T10:20:01.183Z,25.08
2023-03-18T10:22:43.599Z,24.99
2023-03-18T10:25:22.469Z,24.88
2023-03-18T10:28:04.079Z,24.62
2023-03-18T10:30:45.156Z,24.72
2023-03-18T10:33:51.658Z,25.93
2023-03-18T10:36:23.885Z,26.60
2023-03-18T10:38:53.362Z,26.56
2023-03-18T10:41:34.289Z,27.21
2023-03-18T10:44:16.086Z,26.70
2023-03-18T10:46:44.215Z,26.75
2023-03-18T10:49:24.049Z,27.15
2023-03-18T10:51:55.062Z,27.92
2023-03-18T10:54:39.007Z,28.34
2023-03-18T10:57:05.533Z,28.10
2023-03-18T10:59:34.421Z,28.05
2023-03-18T11:02:11.982Z,28.32
2023-03-18T11:04:49.623Z,28.41
2023-03-18T11:07:21.516Z,28.51
2023-03-18T11:09:48.076Z,28.46
2023-03-18T11:12:19.306Z,28.09
2023-03-18T11:14:50.426Z,28.02
2023-03-18T11:17:36.733Z,27.57
2023-03-18T11:20:10.728Z,27.75
2023-03-18T11:22:37.888Z,27.42
2023-03-18T11:25:16.237Z,27.85
2023-03-18T11:27:47.025Z,28.12
2023-03-18T11:30:33.624Z,28.08
2023-03-18T11:33:12.922Z,27.68
2023-03-18T11:35:44.563Z,27.40
2023-03-18T11:38:20.038Z,26.76
2023-03-18T11:40:47.110Z,26.52
2023-03-18T11:43:19.684Z,26.56
2023-03-18T11:46:03.135Z,26.34
2023-03-18T11:48:36.698Z,26.40
2023-03-18T11:51:28.576Z,26.56
2023-03-18T11:54:10.478Z,26.67
2023-03-18T11:56:49.572Z,26.23
2023-03-18T11:59:43.938Z,25.93
2023-03-18T12:02:34.097Z,26.33
2023-03-18T12:05:35.320Z,26.30
2023-03-18T12:08:27.415Z,26.38
2023-03-18T12:11:07.350Z,26.50
2023-03-18T12:13:46.420Z,26.59
2023-03-18T12:16:36.332Z,26.48
2023-03-18T12:19:15.150Z,26.42
2023-03-18T12:21:46.527Z,26.62
2023-03-18T12:24:41.979Z,26.64
2023-03-18T12:27:27.324Z,27.13
2023-03-18T12:30:11.821Z,27.63
2023-03-18T12:33:04.556Z,27.78
2023-03-18T12:36:13.102Z,27.96
2023-03-18T12:39:10.161Z,27.44
2023-03-18T12:42:08.047Z,27.39
2023-03-18T12:45:03.730Z,27.17
2023-03-18T12:47:56.313Z,26.95
2023-03-18T12:50:43.640Z,26.95
2023-03-18T12:53:30.943Z,27.49
2023-03-18T12:56:03.336Z,27.58
2023-03-18T12:58:39.624Z,27.54
2023-03-18T13:01:09.619Z,27.32
2023-03-18T13:03:43.083Z,27.89
2023-03-18T13:06:29.620Z,28.55
2023-03-18T13:09:02.143Z,27.90
2023-03-18T13:11:40.497Z,27.81
2023-03-18T13:14:17.608Z,27.77
2023-03-18T13:16:44.578Z,27.57
2023-03-18T13:19:12.233Z,28.24
2023-03-18T13:21:48.124Z,27.75
2023-03-18T13:24:49.809Z,27.77
2023-03-18T13:27:24.022Z,27.89
2023-03-18T13:30:01.954Z,28.01
2023-03-18T13:32:49.113Z,28.08
2023-03-18T13:35:18.636Z,27.69
2023-03-18T13:38:09.915Z,27.21
2023-03-18T13:40:58.132Z,26.91
2023-03-18T13:43:26.369Z,26.84
2023-03-18T13:45:54.907Z,26.82
2023-03-18T13:48:31.923Z,27.16
2023-03-18T13:50:59.866Z,27.51
2023-03-18T13:53:32.978Z,27.78
2023-03-18T13:56:03.564Z,28.12
2023-03-18T13:58:35.775Z,27.91
2023-03-18T14:01:28.513Z,27.37
2023-03-18T14:04:07.451Z,27.09
2023-03-18T14:06:51.661Z,26.99
2023-03-18T14:09:31.448Z,26.87
2023-03-18T14:12:38.177Z,26.63
2023-03-18T14:15:12.893Z,26.89
2023-03-18T14:17:55.474Z,26.92
2023-03-18T14:20:24.993Z,27.02
2023-03-18T14:22:53.754Z,26.92
2023-03-18T14:25:35.349Z,26.99
2023-03-18T14:28:08.140Z,26.79
2023-03-18T14:30:34.842Z,26.85
2023-03-18T14:33:21.835Z,26.75
2023-03-18T14:35:59.612Z,26.63
2023-03-18T14:38:34.993Z,26.45
2023-03-18T14:41:03.360Z,26.22
2023-03-18T14:43:37.057Z,26.25
2023-03-18T14:46:08.831Z,25.58
2023-03-18T14:48:35.679Z,25.24
2023-03-18T14:51:20.192Z,24.98
2023-03-18T14:53:52.707Z,24.76
2023-03-18T14:56:29.855Z,24.52
2023-03-18T14:58:57.112Z,24.22
2023-03-18T15:01:32.746Z,23.18
2023-03-18T15:04:01.677Z,22.24
2023-03-18T15:06:29.139Z,21.96
2023-03-18T15:09:16.323Z,21.80
2023-03-18T15:11:47.464Z,21.82
2023-03-18T15:14:16.876Z,20.43
2023-03-18T15:16:49.441Z,20.30
2023-03-18T15:19:18.265Z,20.55
2023-03-18T15:21:45.156Z,21.03
2023-03-18T15:24:18.524Z,21.74
2023-03-18T15:26:45.593Z,21.72
2023-03-18T15:29:33.636Z,21.36
2023-03-18T15:32:29.266Z,21.90
2023-03-18T15:35:19.141Z,22.11
2023-03-18T15:37:47.970Z,21.92
2023-03-18T15:40:29.726Z,21.93
2023-03-18T15:43:09.592Z,22.18
2023-03-18T15:45:41.130Z,22.32
2023-03-18T15:48:21.493Z,21.91
2023-03-18T15:50:52.853Z,21.80
2023-03-18T15:53:25.253Z,21.65
2023-03-18T15:55:58.612Z,21.75
2023-03-18T15:58:35.454Z,22.15
2023-03-18T16:01:02.355Z,22.21
2023-03-18T16:03:33.677Z,22.05
2023-03-18T16:06:01.983Z,22.11
2023-03-18T16:08:28.504Z,22.37
2023-03-18T16:10:57.876Z,21.98
2023-03-18T16:13:27.804Z,21.87
2023-03-18T16:15:54.332Z,21.77
2023-03-18T16:18:21.670Z,21.86
2023-03-18T16:20:49.121Z,22.23
2023-03-18T16:23:17.442Z,21.88
2023-03-18T16:25:47.021Z,21.88
2023-03-18T16:28:26.284Z,22.19
2023-03-18T16:30:55.779Z,22.46
2023-03-18T16:33:23.608Z,22.08
2023-03-18T16:35:57.012Z,22.66
2023-03-18T16:38:23.850Z,21.97
2023-03-18T16:40:52.629Z,21.76
2023-03-18T16:43:23.729Z,22.16
2023-03-18T16:45:51.095Z,22.42
2023-03-18T16:48:21.915Z,21.90
2023-03-18T16:50:50.463Z,22.06
2023-03-18T16:53:27.049Z,22.16
2023-03-18T16:56:17.001Z,22.10
2023-03-18T16:58:44.512Z,22.12
2023-03-18T17:01:16.318Z,22.39
2023-03-18T17:03:43.608Z,22.53
2023-03-18T17:06:10.193Z,22.05
2023-03-18T17:08:36.799Z,22.29
2023-03-18T17:11:04.445Z,22.48
2023-03-18T17:13:34.201Z,22.58
2023-03-18T17:16:01.610Z,22.49
2023-03-18T17:18:28.137Z,22.40
2023-03-18T17:20:54.745Z,22.34
2023-03-18T17:23:26.635Z,22.38
2023-03-18T17:25:59.509Z,22.00
2023-03-18T17:28:37.320Z,21.90
2023-03-18T17:31:04.700Z,22.17
2023-03-18T17:33:35.401Z,22.36
2023-03-18T17:36:02.130Z,22.36
2023-03-18T17:38:30.943Z,21.88
2023-03-18T17:40:59.010Z,21.66
2023-03-18T17:43:28.277Z,21.42
2023-03-18T17:45:59.292Z,21.13
2023-03-18T17:48:31.054Z,21.68
2023-03-18T17:51:00.794Z,21.90
2023-03-18T17:53:43.476Z,22.07
2023-03-18T17:56:13.949Z,22.25
2023-03-18T17:58:44.437Z,22.21
2023-03-18T18:01:27.114Z,21.91
2023-03-18T18:03:58.414Z,21.80
2023-03-18T18:06:30.566Z,21.59
2023-03-18T18:09:00.288Z,21.63
2023-03-18T18:11:32.504Z,21.43
2023-03-18T18:14:23.369Z,21.58
2023-03-18T18:16:50.580Z,21.81
2023-03-18T18:19:17.571Z,21.64
2023-03-18T18:21:46.162Z,21.40
2023-03-18T18:24:25.755Z,21.44
2023-03-18T18:26:52.689Z,22.00
2023-03-18T18:29:24.525Z,22.02
2023-03-18T18:31:51.462Z,22.01
2023-03-18T18:34:18.254Z,21.72
2023-03-18T18:36:45.023Z,21.58
2023-03-18T18:39:11.992Z,21.71
2023-03-18T18:41:38.730Z,21.97
2023-03-18T18:44:05.393Z,22.49
2023-03-18T18:46:32.375Z,22.54
2023-03-18T18:48:58.996Z,22.78
2023-03-18T18:51:25.876Z,22.85
2023-03-18T18:53:54.085Z,23.17
2023-03-18T18:56:35.158Z,23.34
2023-03-18T18:59:05.594Z,22.93
2023-03-18T19:01:32.215Z,22.63
2023-03-18T19:03:58.726Z,22.42
2023-03-18T19:06:30.795Z,22.53
2023-03-18T19:09:00.210Z,22.45
2023-03-18T19:11:27.852Z,22.27
2023-03-18T19:14:14.419Z,22.23
2023-03-18T19:16:40.999Z,22.17
2023-03-18T19:19:13.356Z,22.19
2023-03-18T19:21:39.839Z,22.33
2023-03-18T19:24:20.508Z,22.27
2023-03-18T19:26:47.078Z,22.42
2023-03-18T19:29:13.664Z,22.38
2023-03-18T19:31:41.128Z,22.68
2023-03-18T19:34:16.410Z,22.63
2023-03-18T19:36:43.854Z,22.83
2023-03-18T19:39:15.921Z,22.54
2023-03-18T19:41:44.024Z,22.78
2023-03-18T19:44:23.190Z,22.80
2023-03-18T19:46:52.874Z,22.87
2023-03-18T19:49:24.038Z,23.14
2023-03-18T19:51:51.565Z,22.64
2023-03-18T19:54:32.118Z,22.69
2023-03-18T19:57:02.142Z,22.71
2023-03-18T19:59:37.457Z,22.63
2023-03-18T20:02:19.127Z,22.87
2023-03-18T20:04:47.633Z,22.84
2023-03-18T20:07:14.169Z,22.87
2023-03-18T20:09:40.673Z,23.15
2023-03-18T20:12:34.557Z,23.26
2023-03-18T20:15:01.138Z,23.32
2023-03-18T20:17:48.622Z,23.21
2023-03-18T20:20:23.972Z,23.28
2023-03-18T20:23:02.730Z,23.05
2023-03-18T20:25:38.674Z,22.94
2023-03-18T20:28:06.493Z,23.09
2023-03-18T20:30:36.531Z,23.20
2023-03-18T20:33:06.551Z,23.20
2023-03-18T20:35:39.281Z,23.28
2023-03-18T20:38:15.994Z,23.24
2023-03-18T20:40:47.406Z,23.25
2023-03-18T20:43:19.122Z,23.25
2023-03-18T20:45:45.754Z,23.09
2023-03-18T20:48:12.535Z,23.07
2023-03-18T20:50:39.373Z,23.21
2023-03-18T20:53:10.792Z,23.41
2023-03-18T20:55:37.426Z,23.53
2023-03-18T20:58:04.097Z,23.42
2023-03-18T21:00:32.983Z,23.63
2023-03-18T21:03:02.412Z,23.68
2023-03-18T21:05:28.995Z,23.76
2023-03-18T21:07:55.800Z,23.96
2023-03-18T21:10:24.880Z,23.82
2023-03-18T21:12:52.667Z,23.44
2023-03-18T21:15:23.397Z,23.57
2023-03-18T21:17:50.178Z,23.49
2023-03-18T21:20:22.528Z,23.31
2023-03-18T21:22:50.661Z,23.24
2023-03-18T21:25:27.866Z,23.13
2023-03-18T21:27:54.914Z,23.10
2023-03-18T21:30:23.703Z,23.08
2023-03-18T21:32:50.877Z,22.85
2023-03-18T21:35:18.964Z,22.94
2023-03-18T21:37:45.634Z,22.95
2023-03-18T21:40:21.547Z,22.80
2023-03-18T21:42:49.442Z,22.57
2023-03-18T21:45:19.361Z,22.20
2023-03-18T21:47:46.159Z,22.27
2023-03-18T21:50:19.926Z,22.04
2023-03-18T21:52:47.627Z,22.17
2023-03-18T21:55:14.502Z,22.12
2023-03-18T21:57:41.278Z,22.93
2023-03-18T22:00:16.016Z,22.81
2023-03-18T22:02:43.040Z,22.67
2023-03-18T22:05:21.960Z,22.80
2023-03-18T22:07:50.766Z,22.91
2023-03-18T22:10:22.962Z,22.91
2023-03-18T22:12:50.139Z,22.86
2023-03-18T22:15:36.727Z,22.79
2023-03-18T22:18:03.719Z,22.83
2023-03-18T22:20:30.463Z,22.76
2023-03-18T22:22:57.008Z,22.79
2023-03-18T22:25:36.471Z,22.76
2023-03-18T22:28:03.158Z,22.54
2023-03-18T22:30:31.790Z,22.58
2023-03-18T22:32:59.922Z,22.31
2023-03-18T22:35:29.003Z,22.31
2023-03-18T22:37:56.081Z,22.36
2023-03-18T22:40:23.733Z,22.31
2023-03-18T22:42:53.173Z,22.43
2023-03-18T22:45:28.371Z,22.67
2023-03-18T22:48:07.137Z,22.46
2023-03-18T22:50:34.951Z,22.51
2023-03-18T22:53:05.802Z,22.63
2023-03-18T22:55:36.188Z,22.67
2023-03-18T22:58:02.998Z,22.89
2023-03-18T23:00:40.758Z,22.99
2023-03-18T23:03:28.610Z,23.05
2023-03-18T23:05:56.912Z,23.20
2023-03-18T23:08:24.034Z,23.09
2023-03-18T23:10:52.851Z,22.60
2023-03-18T23:13:37.385Z,22.46
2023-03-18T23:16:05.980Z,22.59
2023-03-18T23:18:32.612Z,22.56
2023-03-18T23:20:59.366Z,22.66
2023-03-18T23:23:28.104Z,22.57
2023-03-18T23:25:54.668Z,22.20
2023-03-18T23:28:21.294Z,22.43
2023-03-18T23:30:50.369Z,22.24
2023-03-18T23:33:18.068Z,21.97
2023-03-18T23:35:45.906Z,22.16
2023-03-18T23:38:12.509Z,22.14
2023-03-18T23:40:39.079Z,22.09
2023-03-18T23:43:06.502Z,22.44
2023-03-18T23:45:33.449Z,22.59
2023-03-18T23:48:00.211Z,22.71
2023-03-18T23:50:26.873Z,22.54
2023-03-18T23:52:53.387Z,22.54
2023-03-18T23:55:33.613Z,22.64
2023-03-18T23:58:06.533Z,22.29
